Time;durP1;ratioP1;P1;durP2;ratioP2;P2;SDS_P1;SDS_P2;PMS_P1;PMS_P2;Temp;Humidity;BMP_temperature;BMP_pressure;BME280_temperature;BME280_humidity;BME280_pressure;Samples;Min_cycle;Max_cycle;Signal;HPM_P1;HPM_P2
2022/11/20 00:00:37;;;;;;;;;5.33;5.00;;;;;21.77;47.09;101295.56;5035956;28;45498;-75
2022/11/20 00:03:03;;;;;;;;;5.33;5.33;;;;;21.61;47.02;101268.94;5035742;28;45528;-74
2022/11/20 00:05:28;;;;;;;;;6.00;5.33;;;;;21.68;46.88;101276.19;5034009;28;45358;-75
2022/11/20 00:07:53;;;;;;;;;9.00;4.00;;;;;21.68;47.07;101279.69;5036038;28;45458;-74
2022/11/20 00:10:18;;;;;;;;;5.67;5.67;;;;;21.79;47.15;101299.72;5036213;28;45390;-74
2022/11/20 00:12:44;;;;;;;;;6.00;5.33;;;;;21.70;46.87;101276.88;5035175;28;45971;-75
2022/11/20 00:15:09;;;;;;;;;5.33;5.33;;;;;21.65;46.98;101274.72;5036001;28;45335;-75
2022/11/20 00:17:35;;;;;;;;;6.67;5.00;;;;;21.78;46.48;101287.44;5036033;28;45419;-75
2022/11/20 00:20:00;;;;;;;;;5.00;5.00;;;;;21.76;46.43;101283.31;5035899;28;45383;-75
2022/11/20 00:22:26;;;;;;;;;5.67;5.67;;;;;21.51;46.48;101247.09;5035904;28;46319;-74
2022/11/20 00:24:51;;;;;;;;;7.67;6.33;;;;;21.70;46.86;101279.53;5035234;28;45469;-75
2022/11/20 00:27:16;;;;;;;;;6.00;4.67;;;;;21.71;46.86;101276.72;5035734;28;45338;-74
2022/11/20 00:29:41;;;;;;;;;5.00;5.00;;;;;21.66;46.37;101271.09;5035689;28;45232;-75
2022/11/20 00:32:07;;;;;;;;;7.00;5.67;;;;;21.78;46.47;101291.94;5035670;28;47023;-74
2022/11/20 00:34:32;;;;;;;;;4.00;4.00;;;;;21.77;46.37;101296.41;5035913;28;46349;-74
2022/11/20 00:36:57;;;;;;;;;5.67;4.00;;;;;21.73;46.63;101285.31;5017862;28;45448;-76
2022/11/20 00:39:23;;;;;;;;;4.33;4.00;;;;;21.73;46.44;101287.13;5035556;28;45444;-74
2022/11/20 00:41:48;;;;;;;;;4.67;4.67;;;;;21.77;46.32;101292.94;5035020;28;46287;-74
2022/11/20 00:44:13;;;;;;;;;6.00;6.00;;;;;21.71;46.80;101281.16;5035619;28;45435;-74
2022/11/20 00:46:39;;;;;;;;;5.00;5.00;;;;;21.61;46.61;101273.41;5035727;28;45264;-75
2022/11/20 00:49:04;;;;;;;;;4.33;4.00;;;;;21.50;46.56;101254.22;5035203;28;45434;-75
2022/11/20 00:51:29;;;;;;;;;5.67;4.00;;;;;21.64;46.75;101273.09;5035178;28;46325;-74
2022/11/20 00:53:56;;;;;;;;;4.67;4.33;;;;;21.73;46.86;101285.31;5035125;28;45465;-74
2022/11/20 00:56:22;;;;;;;;;4.00;4.00;;;;;21.56;46.43;101254.53;5035095;28;45283;-79
2022/11/20 00:58:48;;;;;;;;;8.00;6.00;;;;;21.68;46.21;101277.03;5035014;28;46705;-75
2022/11/20 01:01:15;;;;;;;;;7.33;6.33;;;;;21.74;44.74;101289.63;5034906;28;45863;-75
2022/11/20 01:03:44;;;;;;;;;7.00;7.00;;;;;21.66;42.23;101279.03;5034757;28;45438;-75
2022/11/20 01:06:17;;;;;;;;;6.00;5.00;;;;;21.37;44.51;101238.84;5021387;28;45406;-76
2022/11/20 01:08:43;;;;;;;;;6.00;5.00;;;;;21.32;45.75;101235.03;5035340;28;45255;-76
2022/11/20 01:11:15;;;;;;;;;7.33;5.67;;;;;21.52;45.77;101267.28;5034684;28;46402;-77
2022/11/20 01:13:41;;;;;;;;;6.67;5.00;;;;;21.65;45.78;101284.50;5035590;28;45430;-77
2022/11/20 01:16:11;;;;;;;;;4.67;4.00;;;;;21.66;46.06;101284.31;5035240;28;45479;-76
2022/11/20 01:18:38;;;;;;;;;4.33;4.33;;;;;21.67;45.73;101278.03;5035329;28;45361;-76
2022/11/20 01:21:07;;;;;;;;;4.00;4.00;;;;;21.57;46.01;101261.50;5034531;28;47097;-76
2022/11/20 01:23:38;;;;;;;;;5.00;5.00;;;;;21.69;46.60;101277.88;5035287;28;45251;-76
2022/11/20 01:26:06;;;;;;;;;5.00;5.00;;;;;21.49;46.38;101243.81;5036731;28;45448;-76
2022/11/20 01:28:32;;;;;;;;;5.00;5.00;;;;;21.67;46.58;101271.91;5038927;28;45434;-77
2022/11/20 01:30:58;;;;;;;;;6.00;6.00;;;;;21.55;46.68;101240.47;5038413;28;46538;-76
2022/11/20 01:33:23;;;;;;;;;4.67;4.00;;;;;21.71;46.20;101259.97;5038359;28;45868;-77
2022/11/20 01:35:48;;;;;;;;;5.33;5.00;;;;;21.72;46.61;101256.34;5038702;28;45354;-76
2022/11/20 01:38:15;;;;;;;;;4.00;4.00;;;;;21.72;46.59;101257.19;5035089;28;45331;-77
2022/11/20 01:40:40;;;;;;;;;4.00;4.00;;;;;21.72;46.57;101245.75;5027511;28;46321;-76
2022/11/20 01:43:22;;;;;;;;;4.00;4.00;;;;;21.43;46.05;101197.66;5038451;28;45443;-77
2022/11/20 01:46:04;;;;;;;;;5.00;4.00;;;;;21.71;46.53;101238.78;5038765;28;45310;-76
2022/11/20 01:48:36;;;;;;;;;7.33;5.00;;;;;21.72;46.03;101241.28;5038268;28;45481;-77
2022/11/20 01:51:04;;;;;;;;;3.00;3.00;;;;;21.62;46.56;101220.28;5038245;28;46505;-77
2022/11/20 01:53:34;;;;;;;;;4.00;4.00;;;;;21.59;46.56;101217.16;5037480;28;45359;-76
2022/11/20 01:56:02;;;;;;;;;5.67;5.00;;;;;21.63;46.05;101223.75;5038260;28;45224;-76
2022/11/20 01:58:33;;;;;;;;;5.00;5.00;;;;;21.69;46.33;101231.03;5036937;28;45544;-76
2022/11/20 02:00:58;;;;;;;;;3.00;3.00;;;;;21.72;46.06;101232.53;5037830;28;45408;-77
2022/11/20 02:03:24;;;;;;;;;6.00;5.00;;;;;21.63;46.33;101223.75;5038080;28;45240;-76
2022/11/20 02:06:12;;;;;;;;;0.67;0.00;;;;;21.72;46.10;101230.69;5032200;28;45291;-76
2022/11/20 02:08:38;;;;;;;;;6.00;5.00;;;;;21.73;46.67;101227.03;5037688;28;45575;-76
2022/11/20 02:11:04;;;;;;;;;5.33;3.00;;;;;21.67;46.36;101216.31;5037729;28;46241;-76
2022/11/20 02:13:44;;;;;;;;;4.00;3.33;;;;;21.61;46.40;101201.91;5037938;28;45371;-76
2022/11/20 02:16:23;;;;;;;;;5.33;4.00;;;;;21.73;46.63;101218.25;5037933;28;45311;-76
2022/11/20 02:18:49;;;;;;;;;5.67;5.00;;;;;21.73;46.11;101207.66;5037607;28;45413;-76
2022/11/20 02:21:27;;;;;;;;;5.00;4.00;;;;;21.60;46.31;101184.38;5037531;28;46233;-77
2022/11/20 02:24:04;;;;;;;;;5.33;5.00;;;;;21.72;46.15;101200.75;5037489;28;45186;-75
2022/11/20 02:26:33;;;;;;;;;5.00;4.33;;;;;21.71;46.58;101201.72;5037593;28;45546;-76
2022/11/20 02:29:01;;;;;;;;;2.67;2.67;;;;;21.60;46.15;101181.72;5037790;28;45554;-77
2022/11/20 02:31:27;;;;;;;;;4.67;4.67;;;;;21.72;46.11;101204.22;5037447;28;46074;-76
2022/11/20 02:33:57;;;;;;;;;5.67;3.33;;;;;21.67;46.52;101192.47;5037844;28;45327;-76
2022/11/20 02:36:26;;;;;;;;;7.33;4.00;;;;;21.72;46.30;101200.75;5036706;28;45540;-76
2022/11/20 02:38:51;;;;;;;;;4.00;3.67;;;;;21.63;46.38;101176.91;5035972;28;45448;-77
2022/11/20 02:41:17;;;;;;;;;3.33;3.33;;;;;21.73;46.47;101194.44;5037120;28;45719;-76
2022/11/20 02:43:42;;;;;;;;;3.33;3.00;;;;;21.72;46.48;101190.97;5037440;28;45477;-76
2022/11/20 02:46:08;;;;;;;;;3.33;2.00;;;;;21.73;46.39;101186.47;5037628;28;45504;-76
2022/11/20 02:48:33;;;;;;;;;3.33;3.33;;;;;21.58;46.33;101160.72;5037232;28;45359;-77
2022/11/20 02:50:58;;;;;;;;;3.67;3.00;;;;;21.62;46.06;101172.59;5037496;28;47154;-76
2022/11/20 02:53:24;;;;;;;;;6.00;4.00;;;;;21.73;46.11;101181.19;5036279;28;45377;-77
2022/11/20 02:55:49;;;;;;;;;6.00;4.00;;;;;21.58;46.77;101159.88;5037703;28;45375;-77
2022/11/20 02:58:14;;;;;;;;;4.33;3.00;;;;;21.73;46.46;101175.88;5037101;28;45394;-77
2022/11/20 03:00:40;;;;;;;;;5.00;4.33;;;;;21.71;46.22;101165.47;5036853;28;46813;-76
2022/11/20 03:03:05;;;;;;;;;5.00;4.00;;;;;21.70;46.45;101163.00;5037630;28;45319;-77
2022/11/20 03:05:30;;;;;;;;;3.33;3.33;;;;;21.74;46.13;101157.19;5019162;28;45725;-75
2022/11/20 03:07:56;;;;;;;;;7.50;4.25;;;;;21.76;46.67;101164.13;5037016;28;45468;-76
2022/11/20 03:10:21;;;;;;;;;3.75;3.75;;;;;21.47;46.25;101116.06;5036932;28;46470;-76
2022/11/20 03:12:46;;;;;;;;;4.67;4.00;;;;;21.63;46.49;101136.38;5018983;28;45359;-76
2022/11/20 03:15:12;;;;;;;;;3.33;3.33;;;;;21.61;46.33;101128.59;5037302;28;45684;-76
2022/11/20 03:17:37;;;;;;;;;3.67;3.67;;;;;21.68;46.29;101131.38;5036907;28;45542;-77
2022/11/20 03:20:03;;;;;;;;;5.00;4.00;;;;;21.71;46.18;101130.22;5036918;28;45420;-76
2022/11/20 03:22:29;;;;;;;;;3.00;3.00;;;;;21.65;46.40;101121.13;5036573;28;45375;-76
2022/11/20 03:24:55;;;;;;;;;4.00;4.00;;;;;21.66;46.08;101116.66;5036936;28;45344;-76
2022/11/20 03:27:20;;;;;;;;;3.67;3.67;;;;;21.56;46.37;101096.53;5036888;28;45239;-76
2022/11/20 03:29:46;;;;;;;;;6.00;4.00;;;;;21.74;46.22;101114.00;5036438;28;45442;-76
2022/11/20 03:32:11;;;;;;;;;6.00;6.00;;;;;21.62;45.87;101090.53;5036793;28;45227;-76
2022/11/20 03:34:36;;;;;;;;;4.00;4.00;;;;;21.59;46.10;101085.59;5036749;28;45312;-76
2022/11/20 03:37:02;;;;;;;;;3.00;3.00;;;;;21.73;46.22;101109.69;5036800;28;45229;-77
2022/11/20 03:39:27;;;;;;;;;4.67;4.67;;;;;21.69;46.28;101093.31;5036351;28;46334;-77
2022/11/20 03:41:52;;;;;;;;;4.00;4.00;;;;;21.73;45.95;101096.44;5045112;28;45303;-77
2022/11/20 03:44:21;;;;;;;;;2.33;2.33;;;;;21.60;46.21;101073.16;5036806;28;45247;-77
2022/11/20 03:46:46;;;;;;;;;4.33;4.33;;;;;21.45;45.82;101044.75;5036189;28;45385;-76
2022/11/20 03:49:11;;;;;;;;;4.00;3.00;;;;;21.69;46.29;101084.56;5035641;28;45354;-76
2022/11/20 03:51:37;;;;;;;;;3.67;3.00;;;;;21.71;46.33;101083.38;5036136;28;45366;-76
2022/11/20 03:54:05;;;;;;;;;5.67;4.00;;;;;21.71;45.87;101078.09;5036570;28;45406;-76
2022/11/20 03:56:32;;;;;;;;;6.67;3.67;;;;;21.72;46.38;101078.91;5036194;28;45500;-77
2022/11/20 03:58:58;;;;;;;;;2.00;2.00;;;;;21.47;45.90;101036.63;5035943;28;46971;-76
2022/11/20 04:01:37;;;;;;;;;4.00;4.00;;;;;21.72;46.26;101073.63;5036419;28;45332;-77
2022/11/20 04:04:03;;;;;;;;;4.00;4.00;;;;;21.71;46.11;101075.44;5033995;28;45351;-77
2022/11/20 04:06:32;;;;;;;;;4.33;4.33;;;;;21.69;46.16;101068.66;5035461;28;45565;-76
2022/11/20 04:08:58;;;;;;;;;3.33;2.00;;;;;21.61;45.88;101054.47;5035707;28;46497;-76
2022/11/20 04:11:31;;;;;;;;;5.00;3.33;;;;;21.57;46.27;101052.34;5036143;28;45428;-76
2022/11/20 04:14:00;;;;;;;;;7.00;4.00;;;;;21.58;46.35;101052.16;5036054;28;45366;-76
2022/11/20 04:16:28;;;;;;;;;3.00;3.00;;;;;21.62;46.53;101053.44;5036050;28;45434;-76
2022/11/20 04:18:56;;;;;;;;;3.00;3.00;;;;;21.67;46.19;101058.25;5035411;28;48666;-77
2022/11/20 04:21:21;;;;;;;;;2.67;2.67;;;;;21.60;46.23;101046.69;5035664;28;45410;-76
2022/11/20 04:23:48;;;;;;;;;2.00;2.00;;;;;21.70;46.19;101055.25;5036002;28;45453;-76
2022/11/20 04:26:13;;;;;;;;;5.67;4.00;;;;;21.69;46.18;101056.25;5036127;28;45619;-76
2022/11/20 04:28:39;;;;;;;;;4.33;4.33;;;;;21.65;46.17;101049.63;5035693;28;45330;-76
2022/11/20 04:31:07;;;;;;;;;5.67;4.00;;;;;21.70;46.19;101051.78;5035731;28;45325;-76
2022/11/20 04:33:34;;;;;;;;;1.00;1.00;;;;;21.69;45.82;101050.13;5035305;28;45348;-77
2022/11/20 04:36:21;;;;;;;;;3.00;3.00;;;;;21.72;46.13;101052.44;5035574;28;45330;-76
2022/11/20 04:38:49;;;;;;;;;3.67;3.67;;;;;21.69;46.08;101045.66;5035578;28;45421;-76
2022/11/20 04:41:18;;;;;;;;;4.00;4.00;;;;;21.64;46.29;101040.06;5042079;28;45271;-76
2022/11/20 04:43:50;;;;;;;;;4.00;4.00;;;;;21.62;46.23;101039.41;5035488;28;45353;-76
2022/11/20 04:46:16;;;;;;;;;2.00;2.00;;;;;21.52;46.37;101013.13;5035426;28;45304;-76
2022/11/20 04:48:41;;;;;;;;;1.00;1.00;;;;;21.55;46.24;101026.03;5034825;28;45659;-76
2022/11/20 04:51:07;;;;;;;;;3.00;3.00;;;;;21.52;46.15;101021.91;5035472;28;45386;-76
2022/11/20 04:53:32;;;;;;;;;4.00;3.33;;;;;21.68;45.74;101046.66;5035379;28;45388;-76
2022/11/20 04:56:01;;;;;;;;;5.00;4.00;;;;;21.40;46.13;100994.16;5035726;28;45377;-76
2022/11/20 04:58:27;;;;;;;;;2.33;2.33;;;;;21.66;46.07;101034.59;5035255;28;47311;-76
2022/11/20 05:00:53;;;;;;;;;6.00;3.67;;;;;21.67;45.88;101038.88;5033112;28;45252;-76
2022/11/20 05:03:18;;;;;;;;;2.33;2.33;;;;;21.70;45.98;101046.50;5035072;28;45425;-76
2022/11/20 05:05:43;;;;;;;;;4.00;4.00;;;;;21.70;46.18;101034.06;5021165;28;45326;-76
2022/11/20 05:08:09;;;;;;;;;2.00;2.00;;;;;21.61;45.86;101024.50;5035064;28;45547;-77
2022/11/20 05:10:34;;;;;;;;;2.67;2.67;;;;;21.54;46.23;101012.97;5035137;28;45239;-76
2022/11/20 05:12:59;;;;;;;;;2.67;2.67;;;;;21.70;45.79;101038.56;5035278;28;45382;-76
2022/11/20 05:15:24;;;;;;;;;2.67;2.33;;;;;21.66;45.64;101024.81;5035436;28;45253;-76
2022/11/20 05:17:51;;;;;;;;;4.00;2.67;;;;;21.70;45.81;101030.59;5034619;28;46248;-76
2022/11/20 05:20:17;;;;;;;;;3.00;3.00;;;;;21.55;45.88;101004.00;5035243;28;46196;-74
2022/11/20 05:22:43;;;;;;;;;3.00;3.00;;;;;21.69;45.77;101029.78;5038726;28;45326;-75
2022/11/20 05:25:09;;;;;;;;;4.00;3.00;;;;;21.69;46.26;101027.13;5034971;28;45570;-76
2022/11/20 05:27:35;;;;;;;;;4.00;4.00;;;;;21.68;46.16;101033.41;5035094;28;46406;-76
2022/11/20 05:30:00;;;;;;;;;4.00;3.67;;;;;21.66;46.21;101026.63;5034667;28;45395;-76
2022/11/20 05:32:25;;;;;;;;;2.33;2.33;;;;;21.64;45.84;101018.88;5035885;28;45368;-76
2022/11/20 05:34:52;;;;;;;;;4.33;3.33;;;;;21.69;45.74;101032.41;5037289;28;45362;-77
2022/11/20 05:37:17;;;;;;;;;2.00;2.00;;;;;21.57;46.20;101007.34;5034890;28;46313;-76
2022/11/20 05:39:42;;;;;;;;;4.00;3.00;;;;;21.61;45.98;101011.28;5034802;28;45446;-76
2022/11/20 05:45:04;;;;;;;;;3.33;2.33;;;;;21.55;45.66;100996.06;5021500;28;45405;-76
2022/11/20 05:47:33;;;;;;;;;2.00;2.00;;;;;21.66;45.72;101018.69;5034330;28;47212;-78
2022/11/20 05:49:58;;;;;;;;;2.67;2.00;;;;;21.68;45.97;101020.16;5034270;28;45401;-76
2022/11/20 05:52:24;;;;;;;;;4.00;4.00;;;;;21.68;46.17;101011.38;5035060;28;45392;-76
2022/11/20 05:54:49;;;;;;;;;3.00;3.00;;;;;21.68;46.06;101009.56;5034978;28;45526;-77
2022/11/20 05:57:14;;;;;;;;;2.00;2.00;;;;;21.51;45.55;100993.78;5034359;28;46203;-75
2022/11/20 05:59:40;;;;;;;;;4.33;3.00;;;;;21.52;46.13;100995.41;5034485;28;45482;-76
2022/11/20 06:02:05;;;;;;;;;4.67;3.67;;;;;21.67;45.99;101013.25;5034442;28;45378;-76
2022/11/20 06:04:30;;;;;;;;;2.00;2.00;;;;;21.52;45.49;100990.13;5032323;28;45526;-77
2022/11/20 06:06:56;;;;;;;;;3.00;3.00;;;;;21.68;46.06;101009.56;5034492;28;46658;-76
2022/11/20 06:09:21;;;;;;;;;3.00;3.00;;;;;21.68;45.47;101012.22;5034511;28;45405;-76
2022/11/20 06:11:46;;;;;;;;;2.33;2.33;;;;;21.67;45.60;101005.28;5036513;28;45604;-75
2022/11/20 06:14:12;;;;;;;;;4.33;2.00;;;;;21.62;46.00;100999.69;5037753;28;45561;-76
2022/11/20 06:16:37;;;;;;;;;4.00;4.00;;;;;21.68;45.96;101014.03;5037506;28;46096;-76
2022/11/20 06:19:03;;;;;;;;;4.00;4.00;;;;;21.56;45.34;100995.09;5037990;28;45374;-76
2022/11/20 06:21:28;;;;;;;;;2.25;2.25;;;;;21.66;46.15;101000.97;5037692;28;45358;-76
2022/11/20 06:23:53;;;;;;;;;3.33;3.00;;;;;21.70;45.39;101004.13;5037880;28;45395;-76
2022/11/20 06:26:23;;;;;;;;;3.67;1.33;;;;;21.69;45.71;100990.06;5047256;28;46682;-76
2022/11/20 06:28:49;;;;;;;;;3.00;3.00;;;;;21.67;45.51;100980.63;5037294;28;45398;-75
2022/11/20 06:31:17;;;;;;;;;2.00;2.00;;;;;21.57;45.62;100971.06;5037613;28;45454;-76
2022/11/20 06:33:43;;;;;;;;;2.67;2.67;;;;;21.58;45.55;100970.09;5037860;28;45343;-76
2022/11/20 06:36:10;;;;;;;;;3.67;3.00;;;;;21.69;46.12;100990.06;5037294;28;46126;-76
2022/11/20 06:38:36;;;;;;;;;2.00;2.00;;;;;21.51;45.65;100956.72;5038269;28;45562;-76
2022/11/20 06:41:03;;;;;;;;;3.33;2.00;;;;;21.66;45.59;100979.81;5037635;28;45314;-76
2022/11/20 06:43:28;;;;;;;;;2.00;2.00;;;;;21.68;45.72;100983.09;5036993;28;45505;-76
2022/11/20 06:45:55;;;;;;;;;3.67;2.67;;;;;21.64;45.43;100979.16;5037450;28;46586;-76
2022/11/20 06:48:22;;;;;;;;;2.33;2.33;;;;;21.51;45.95;100963.84;5037368;28;45442;-76
2022/11/20 06:50:47;;;;;;;;;4.00;3.33;;;;;21.47;45.94;100958.06;5037319;28;45507;-77
2022/11/20 06:53:13;;;;;;;;;5.00;4.00;;;;;21.60;45.49;100980.47;5031992;28;46059;-76
2022/11/20 06:55:45;;;;;;;;;4.00;2.00;;;;;21.58;45.55;100982.50;5037346;28;45350;-76
2022/11/20 06:58:11;;;;;;;;;3.00;2.67;;;;;21.63;45.99;100983.63;5036761;28;45392;-76
2022/11/20 07:00:37;;;;;;;;;1.67;1.67;;;;;21.68;45.46;100987.56;5036770;28;45314;-76
2022/11/20 07:03:04;;;;;;;;;4.00;3.00;;;;;21.58;45.53;100978.03;5037476;28;45327;-75
2022/11/20 07:05:29;;;;;;;;;3.00;3.00;;;;;21.48;45.47;100962.38;5032862;28;47460;-76
2022/11/20 07:07:56;;;;;;;;;4.00;3.33;;;;;21.62;46.02;100981.16;5036837;28;45331;-76
2022/11/20 07:10:21;;;;;;;;;3.33;2.33;;;;;21.65;45.92;100975.50;5037225;28;45376;-77
2022/11/20 07:12:52;;;;;;;;;3.00;3.00;;;;;21.65;45.69;100980.00;5036709;28;45376;-77
2022/11/20 07:15:18;;;;;;;;;1.00;1.00;;;;;21.66;45.34;100981.63;5036997;28;45393;-76
2022/11/20 07:17:44;;;;;;;;;3.00;2.00;;;;;21.58;45.72;100963.97;5036508;28;45597;-76
2022/11/20 07:20:10;;;;;;;;;3.00;3.00;;;;;21.45;45.90;100938.06;5036773;28;45421;-76
2022/11/20 07:22:35;;;;;;;;;3.00;3.00;;;;;21.58;45.35;100958.66;5036224;28;45466;-76
2022/11/20 07:25:01;;;;;;;;;3.67;3.67;;;;;21.61;45.56;100964.44;5037483;28;45502;-76
2022/11/20 07:27:27;;;;;;;;;2.67;2.67;;;;;21.57;45.63;100954.38;5036359;28;45331;-76
2022/11/20 07:29:52;;;;;;;;;2.33;1.33;;;;;21.67;45.44;100960.28;5036780;28;45386;-76
2022/11/20 07:32:17;;;;;;;;;4.00;3.00;;;;;21.63;45.69;100951.03;5036467;28;45347;-75
2022/11/20 07:34:43;;;;;;;;;3.33;3.33;;;;;21.67;45.49;100954.16;5017805;28;46656;-76
2022/11/20 07:37:08;;;;;;;;;2.67;2.00;;;;;21.58;45.33;100937.47;5036688;28;45428;-76
2022/11/20 07:39:33;;;;;;;;;3.00;2.33;;;;;21.53;45.58;100924.78;5036464;28;45371;-76
2022/11/20 07:41:59;;;;;;;;;5.00;2.33;;;;;21.60;45.44;100932.81;5036437;28;45303;-76
2022/11/20 07:44:24;;;;;;;;;4.67;1.33;;;;;21.63;45.83;100938.59;5036702;28;47085;-75
2022/11/20 07:46:49;;;;;;;;;2.33;1.00;;;;;21.63;45.81;100932.47;5036441;28;45463;-77
2022/11/20 07:49:15;;;;;;;;;2.00;2.00;;;;;21.38;45.86;100896.41;5036031;28;45426;-76
2022/11/20 07:51:40;;;;;;;;;1.00;1.00;;;;;21.62;45.54;100925.56;5036422;28;45401;-76
2022/11/20 07:54:05;;;;;;;;;2.00;2.00;;;;;21.57;45.82;100918.13;5036119;28;48530;-76
2022/11/20 07:56:31;;;;;;;;;3.00;2.00;;;;;21.61;46.02;100923.91;5035896;28;45285;-76
2022/11/20 07:58:56;;;;;;;;;5.00;3.00;;;;;21.66;45.40;100931.31;5036129;28;45382;-76
2022/11/20 08:01:21;;;;;;;;;3.00;3.00;;;;;21.59;45.91;100921.44;5036412;28;45335;-76
2022/11/20 08:03:46;;;;;;;;;3.00;3.00;;;;;21.63;45.45;100916.59;5036045;28;48571;-76
2022/11/20 08:06:12;;;;;;;;;3.00;3.00;;;;;21.67;45.91;100922.38;5033957;28;45289;-74
2022/11/20 08:08:39;;;;;;;;;4.00;2.00;;;;;21.49;45.47;100892.53;5036628;28;45308;-75
2022/11/20 08:16:33;;;;;;;;;1.67;1.33;;;;;21.66;45.96;100905.66;5036349;28;45391;-75
2022/11/20 08:18:58;;;;;;;;;2.00;2.00;;;;;21.67;45.43;100903.84;5018381;28;45279;-75
2022/11/20 08:21:23;;;;;;;;;2.00;2.00;;;;;21.54;45.60;100881.44;5035630;28;45537;-76
2022/11/20 08:23:49;;;;;;;;;2.00;2.00;;;;;21.67;45.45;100895.91;5036060;28;46187;-77
2022/11/20 08:26:14;;;;;;;;;3.33;2.00;;;;;21.39;46.02;100861.00;5035160;28;45277;-77
2022/11/20 08:28:40;;;;;;;;;2.00;2.00;;;;;21.49;45.56;100867.91;5035914;28;45249;-75
2022/11/20 08:31:05;;;;;;;;;2.00;2.00;;;;;21.69;45.83;100886.78;5035942;28;45293;-78
2022/11/20 08:33:32;;;;;;;;;4.00;3.00;;;;;21.43;45.79;100850.88;5035747;28;46125;-76
2022/11/20 08:35:59;;;;;;;;;2.00;2.00;;;;;21.70;45.53;100891.06;5035730;28;45490;-76
2022/11/20 08:38:25;;;;;;;;;2.00;2.00;;;;;21.54;45.37;100854.13;5035814;28;45566;-74
2022/11/20 08:43:57;;;;;;;;;2.00;2.00;;;;;21.71;45.75;100886.59;5010417;28;46511;-76
2022/11/20 08:46:24;;;;;;;;;4.00;2.00;;;;;21.60;46.00;100879.88;5013376;28;45354;-76
2022/11/20 08:48:50;;;;;;;;;3.00;3.00;;;;;21.74;45.42;100902.13;5012943;28;45535;-77
2022/11/20 08:51:16;;;;;;;;;3.33;2.67;;;;;21.75;45.78;100901.16;5013494;28;45419;-75
2022/11/20 08:53:42;;;;;;;;;4.33;3.00;;;;;21.75;45.82;100906.44;5012866;28;46434;-77
2022/11/20 08:56:09;;;;;;;;;2.00;2.00;;;;;21.77;46.03;100900.97;5012907;28;45458;-76
2022/11/20 08:58:34;;;;;;;;;3.00;2.33;;;;;21.70;45.95;100884.97;5013110;28;45389;-76
2022/11/20 09:01:00;;;;;;;;;1.33;1.33;;;;;21.72;45.67;100890.91;5012922;28;45477;-77
2022/11/20 09:03:26;;;;;;;;;2.00;2.00;;;;;21.70;45.54;100885.75;5013054;28;45551;-76
2022/11/20 09:06:00;;;;;;;;;2.33;2.33;;;;;21.74;45.50;100891.53;4999262;28;45274;-76
2022/11/20 09:08:25;;;;;;;;;2.00;2.00;;;;;21.78;45.51;100905.25;5012676;28;46056;-77
2022/11/20 09:10:55;;;;;;;;;2.00;2.00;;;;;21.59;45.42;100865.00;5012945;28;45362;-76
2022/11/20 09:13:22;;;;;;;;;2.00;2.00;;;;;21.80;45.49;100898.78;5012870;28;46816;-77
2022/11/20 09:15:47;;;;;;;;;3.67;2.00;;;;;21.69;45.35;100870.88;5033890;28;45425;-76
2022/11/20 09:18:13;;;;;;;;;1.00;1.00;;;;;21.65;45.61;100866.13;5035063;28;45447;-76
2022/11/20 09:20:38;;;;;;;;;2.67;2.67;;;;;21.80;45.61;100893.50;5034911;28;45351;-77
2022/11/20 09:23:03;;;;;;;;;2.00;2.00;;;;;21.50;46.04;100835.13;5034639;28;47297;-77
2022/11/20 09:25:29;;;;;;;;;2.67;2.67;;;;;21.66;45.83;100859.81;5034764;28;45395;-76
2022/11/20 09:27:55;;;;;;;;;2.67;2.00;;;;;21.80;45.62;100877.59;5034877;28;45416;-77
2022/11/20 09:30:21;;;;;;;;;3.00;2.00;;;;;21.74;45.83;100871.19;5035261;28;45414;-77
2022/11/20 09:32:46;;;;;;;;;2.00;1.33;;;;;21.49;45.56;100839.56;5034047;28;45955;-76
2022/11/20 09:35:11;;;;;;;;;2.33;2.00;;;;;21.70;45.51;100866.44;5021427;28;45394;-76
2022/11/20 09:37:37;;;;;;;;;1.00;1.00;;;;;21.69;46.01;100862.13;5034745;28;45423;-76
2022/11/20 09:40:02;;;;;;;;;4.00;2.33;;;;;21.77;45.50;100880.59;5034563;28;45268;-77
2022/11/20 09:43:06;;;;;;;;;2.67;2.00;;;;;21.78;45.76;100884.06;5035113;28;46132;-77
2022/11/20 09:45:49;;;;;;;;;2.00;2.00;;;;;21.76;45.44;100876.28;5035061;28;45441;-77
2022/11/20 09:48:37;;;;;;;;;3.00;2.00;;;;;21.77;45.49;100879.78;5038141;28;45357;-78
2022/11/20 09:51:11;;;;;;;;;1.67;1.67;;;;;21.76;45.77;100870.16;5038506;28;45299;-77
2022/11/20 09:53:55;;;;;;;;;2.00;2.00;;;;;21.74;45.87;100870.34;5037740;28;47260;-77
2022/11/20 09:56:21;;;;;;;;;2.00;2.00;;;;;21.66;45.86;100855.34;5038242;28;45358;-77
2022/11/20 09:58:54;;;;;;;;;1.00;1.00;;;;;21.75;45.44;100864.06;5038055;28;45363;-78
2022/11/20 10:01:23;;;;;;;;;1.00;1.00;;;;;21.68;45.39;100852.50;5042419;28;45415;-77
2022/11/20 10:04:03;;;;;;;;;2.00;2.00;;;;;21.70;45.41;100867.22;5037730;28;45436;-77
2022/11/20 10:06:32;;;;;;;;;3.00;2.67;;;;;21.62;45.91;100854.88;5043012;28;45458;-77
2022/11/20 10:09:01;;;;;;;;;1.33;1.33;;;;;21.74;45.75;100873.00;5043159;28;45220;-76
2022/11/20 10:11:43;;;;;;;;;2.67;2.33;;;;;21.73;45.98;100874.81;5024883;28;45430;-77
2022/11/20 10:14:23;;;;;;;;;3.00;2.00;;;;;21.70;46.02;100872.53;5037402;28;46708;-77
2022/11/20 10:17:17;;;;;;;;;5.00;1.00;;;;;21.74;45.51;100875.66;5037706;28;45299;-77
2022/11/20 10:19:51;;;;;;;;;1.67;1.00;;;;;21.73;45.83;100880.13;5037758;28;45324;-77
2022/11/20 10:22:46;;;;;;;;;2.00;2.00;;;;;21.60;46.08;100848.09;5037315;28;45511;-77
2022/11/20 10:25:53;;;;;;;;;4.00;2.00;;;;;21.73;45.56;100876.63;5022795;28;45482;-77
2022/11/20 10:28:40;;;;;;;;;2.00;2.00;;;;;21.73;45.50;100863.41;5026448;28;45505;-77
2022/11/20 10:31:14;;;;;;;;;2.00;2.00;;;;;21.72;46.06;100861.78;5037909;28;45351;-77
2022/11/20 10:33:44;;;;;;;;;1.67;1.67;;;;;21.72;45.76;100867.91;5037771;28;45466;-77
2022/11/20 10:36:16;;;;;;;;;2.00;2.00;;;;;21.72;45.90;100859.13;5036722;28;45444;-78
2022/11/20 10:38:54;;;;;;;;;3.67;2.00;;;;;21.69;45.57;100864.75;5050528;28;45540;-77
2022/11/20 10:41:40;;;;;;;;;3.00;2.00;;;;;21.56;45.59;100837.06;5037512;28;45364;-77
2022/11/20 10:45:00;;;;;;;;;3.00;1.67;;;;;21.71;46.00;100863.59;5037506;28;45407;-76
2022/11/20 10:47:00;;;;;;;;;3.00;2.00;;;;;21.20;45.59;100787.38;5037365;28;45895;-78
2022/11/20 10:49:26;;;;;;;;;2.00;2.00;;;;;21.69;45.54;100865.59;5037263;28;45236;-78
2022/11/20 10:52:20;;;;;;;;;2.00;2.00;;;;;21.70;45.53;100867.22;5037427;28;45725;-79
2022/11/20 10:55:10;;;;;;;;;1.00;1.00;;;;;21.72;45.96;100880.31;5034571;28;45455;-79
2022/11/20 10:58:01;;;;;;;;;2.33;2.33;;;;;21.69;45.54;100873.53;5036354;28;46331;-79
2022/11/20 11:00:27;;;;;;;;;2.00;2.00;;;;;21.70;45.98;100871.72;5036759;28;45554;-79
2022/11/20 11:02:54;;;;;;;;;3.00;2.00;;;;;21.39;46.10;100817.84;5037287;28;45379;-78
2022/11/20 11:05:20;;;;;;;;;2.33;2.00;;;;;21.70;45.50;100864.56;5024437;28;45401;-78
2022/11/20 11:07:49;;;;;;;;;3.67;3.00;;;;;21.61;45.74;100847.94;5035483;28;47252;-80
2022/11/20 11:10:24;;;;;;;;;2.00;1.00;;;;;21.56;45.49;100837.06;5037297;28;45173;-80
2022/11/20 11:12:49;;;;;;;;;0.67;0.67;;;;;21.47;45.74;100817.75;5037208;28;45471;-79
2022/11/20 11:15:38;;;;;;;;;4.00;2.33;;;;;21.70;45.78;100859.28;5037104;28;45373;-79
2022/11/20 11:18:05;;;;;;;;;1.33;1.33;;;;;21.72;45.75;100856.47;5036500;28;45448;-76
2022/11/20 11:20:32;;;;;;;;;2.00;2.00;;;;;21.72;46.64;100846.72;5036564;28;45377;-77
2022/11/20 11:22:59;;;;;;;;;4.00;4.00;;;;;21.74;46.56;100841.22;5036821;28;45229;-75
2022/11/20 11:25:36;;;;;;;;;2.00;2.00;;;;;21.50;46.30;100800.69;5036979;28;45414;-77
2022/11/20 11:28:17;;;;;;;;;5.00;2.00;;;;;21.77;46.27;100848.81;5036476;28;45431;-80
2022/11/20 11:30:44;;;;;;;;;2.00;1.67;;;;;21.78;46.81;100841.69;5037141;28;45296;-78
2022/11/20 11:33:17;;;;;;;;;2.00;2.00;;;;;21.69;46.90;100831.16;5036504;28;45375;-79
2022/11/20 11:35:58;;;;;;;;;2.33;1.33;;;;;21.79;47.08;100845.97;5028103;28;45264;-81
2022/11/20 11:38:38;;;;;;;;;1.67;1.67;;;;;21.81;46.99;100838.66;5036517;28;47157;-79
2022/11/20 11:41:06;;;;;;;;;2.67;2.67;;;;;21.80;47.73;100835.22;5036523;28;45586;-78